»·PEaware :: N612MN KVNY-KSNA

N612MN :: KVNY-KSNA

FLIGHT INFORMATION

Flight Status: Arrived
Operator: Privately registered:
United States
More flights under this callsign
Pilot: Jeff S. (17264)
Aircraft: PIPER PA-28 CHEROKEE ARCHER
(P28A)
More flights by this aircraft type
Origin: KVNY Van Nuys
United States
Destination: KSNA John Wayne-Orange Co
United States
More flights between these airports :: More routes between these airports
Route: +
File this flight plan on PilotEdge
Remarks: CAT10
Altitude:
(Current/Filed)
5,500ft
Speed:
(Current/Filed)
0kts
Departed: 27-Dec-17 08:38 PM
Arrived: 27-Dec-17 09:19 PM
Distance/Time
Traveled:
44nm/0:41
Distance/Time
To Go:
Arrived

Flight Plot

Page will automatically refresh every two minutes.


Map Options




Map Legend


Flown Route
Filed Route
Departure Airport
Arrival Airport
Navaid (VOR, NDB)
Fix

Horizontal Profiles

Position Reports

Time Latitude Longitude Heading Altitude Ground
Speed
27-Dec-17 20:33 34.210764 -118.492042 51 775ft 0kts
27-Dec-17 20:34 34.210764 -118.492042 51 775ft 0kts
27-Dec-17 20:35 34.210764 -118.492042 51 775ft 0kts
27-Dec-17 20:36 34.210764 -118.492042 51 775ft 0kts
27-Dec-17 20:37 34.210764 -118.492042 51 775ft 0kts
27-Dec-17 20:38 34.210889 -118.491912 27 775ft 7kts
27-Dec-17 20:39 34.216334 -118.492528 347 775ft 17kts
27-Dec-17 20:40 34.218281 -118.492340 7 775ft 0kts
27-Dec-17 20:41 34.218281 -118.492340 7 775ft 0kts
27-Dec-17 20:42 34.218659 -118.492163 54 775ft 0kts
27-Dec-17 20:43 34.218659 -118.492163 54 775ft 0kts
27-Dec-17 20:44 34.213910 -118.490771 172 775ft 72kts
27-Dec-17 20:45 34.191354 -118.489342 179 1601ft 80kts
27-Dec-17 20:46 34.168618 -118.492786 190 2397ft 89kts
27-Dec-17 20:47 34.145347 -118.500169 202 3305ft 82kts
27-Dec-17 20:48 34.125727 -118.512193 209 4069ft 85kts
27-Dec-17 20:49 34.101077 -118.521047 172 4632ft 108kts
27-Dec-17 20:50 34.106834 -118.547231 326 5057ft 113kts
27-Dec-17 20:51 34.129606 -118.570616 319 5545ft 122kts
27-Dec-17 20:52 34.157149 -118.559813 76 5500ft 116kts
27-Dec-17 20:53 34.145566 -118.529786 165 5376ft 104kts
27-Dec-17 20:54 34.118336 -118.523379 167 5510ft 99kts
27-Dec-17 20:55 34.094870 -118.514839 161 5524ft 109kts
27-Dec-17 20:56 34.061453 -118.501856 159 5458ft 108kts
27-Dec-17 20:57 34.038652 -118.492188 161 5452ft 101kts
27-Dec-17 20:58 34.011966 -118.480841 157 5495ft 101kts
27-Dec-17 20:59 33.981309 -118.465780 161 5561ft 102kts
27-Dec-17 21:00 33.958936 -118.454918 158 5556ft 105kts
27-Dec-17 21:01 33.932436 -118.438744 150 5529ft 108kts
27-Dec-17 21:02 33.907149 -118.418297 145 5428ft 112kts
27-Dec-17 21:03 33.883566 -118.396841 126 5466ft 108kts
27-Dec-17 21:04 33.867773 -118.367139 124 5530ft 105kts
27-Dec-17 21:05 33.846330 -118.343247 144 5524ft 106kts
27-Dec-17 21:06 33.822092 -118.322124 146 5519ft 106kts
27-Dec-17 21:07 33.797420 -118.302414 150 5504ft 108kts
27-Dec-17 21:08 33.769545 -118.291179 163 5455ft 106kts
27-Dec-17 21:09 33.742101 -118.279470 167 5483ft 102kts
27-Dec-17 21:10 33.714991 -118.271533 166 5521ft 102kts
27-Dec-17 21:11 33.688914 -118.258405 147 5527ft 105kts
27-Dec-17 21:12 33.686041 -118.224576 86 5071ft 102kts
27-Dec-17 21:13 33.686236 -118.190568 94 4732ft 96kts
27-Dec-17 21:14 33.689736 -118.160747 60 4551ft 92kts
27-Dec-17 21:15 33.701846 -118.131936 66 4487ft 101kts
27-Dec-17 21:16 33.707578 -118.098403 88 4266ft 115kts
27-Dec-17 21:17 33.708321 -118.059981 89 3631ft 119kts
27-Dec-17 21:18 33.707536 -118.022641 86 3482ft 97kts
27-Dec-17 21:19 33.709169 -117.989643 90 3343ft 105kts
27-Dec-17 21:20 33.713440 -117.956260 76 3031ft 99kts
27-Dec-17 21:21 33.720866 -117.924583 77 2574ft 94kts
27-Dec-17 21:22 33.718106 -117.892243 105 1809ft 91kts
27-Dec-17 21:23 33.706559 -117.867612 132 1025ft 77kts
27-Dec-17 21:24 33.688352 -117.860681 209 327ft 75kts
27-Dec-17 21:25 33.675862 -117.869471 291 58ft 10kts
27-Dec-17 21:26 33.676236 -117.870649 211 58ft 0kts
27-Dec-17 21:27 33.676236 -117.870649 211 58ft 0kts
27-Dec-17 21:28 33.676236 -117.870649 211 58ft 0kts
27-Dec-17 21:29 33.676236 -117.870649 211 58ft 0kts
27-Dec-17 21:30 33.676236 -117.870649 211 58ft 0kts
27-Dec-17 21:31 33.676236 -117.870649 211 58ft 0kts
27-Dec-17 21:32 33.676236 -117.870649 211 58ft 0kts
27-Dec-17 21:33 33.676236 -117.870649 211 58ft 0kts
27-Dec-17 21:34 33.676236 -117.870649 211 58ft 0kts
27-Dec-17 21:35 33.676236 -117.870649 211 58ft 0kts
27-Dec-17 21:36 33.676236 -117.870649 211 58ft 0kts
27-Dec-17 21:37 33.676236 -117.870649 211 58ft 0kts

Navigation Log

Ident Type
1. KVNY Airport
2. KSNA Airport